createdAt,value
2019-01-25T00:04:41.103Z,-2.10
2019-01-25T00:09:44.911Z,-2.10
2019-01-25T00:14:48.636Z,-2.10
2019-01-25T00:19:52.343Z,-2.10
2019-01-25T00:24:56.092Z,-2.10
2019-01-25T00:29:59.847Z,-2.10
2019-01-25T00:35:03.951Z,-2.10
2019-01-25T00:40:10.572Z,-2.10
2019-01-25T00:45:14.911Z,-2.10
2019-01-25T00:50:19.457Z,-2.10
2019-01-25T00:55:23.202Z,-2.10
2019-01-25T01:00:27.463Z,-2.10
2019-01-25T01:05:31.345Z,-2.10
2019-01-25T01:10:35.145Z,-2.10
2019-01-25T01:15:38.865Z,-2.10
2019-01-25T01:20:42.579Z,-2.10
2019-01-25T01:25:46.358Z,-2.10
2019-01-25T01:30:50.077Z,-2.00
2019-01-25T01:35:53.778Z,-2.00
2019-01-25T01:40:57.492Z,-2.00
2019-01-25T01:46:01.199Z,-2.00
2019-01-25T01:51:05.047Z,-2.00
2019-01-25T01:56:08.749Z,-2.00
2019-01-25T02:01:12.780Z,-2.00
2019-01-25T02:06:16.496Z,-2.00
2019-01-25T02:11:20.212Z,-2.00
2019-01-25T02:16:23.907Z,-2.00
2019-01-25T02:21:27.607Z,-2.00
2019-01-25T02:26:31.316Z,-2.10
2019-01-25T02:31:35.038Z,-2.10
2019-01-25T02:36:39.040Z,-2.10
2019-01-25T02:41:42.735Z,-2.10
2019-01-25T03:53:11.462Z,-2.40
2019-01-25T03:58:15.158Z,-2.40
2019-01-25T04:03:18.835Z,-2.40
2019-01-25T04:08:22.581Z,-2.40
2019-01-25T04:13:26.507Z,-2.40
2019-01-25T04:18:30.188Z,-2.40
2019-01-25T04:23:33.886Z,-2.40
2019-01-25T04:28:37.628Z,-2.40
2019-01-25T04:33:44.338Z,-2.40
2019-01-25T04:38:48.291Z,-2.40
2019-01-25T04:43:51.967Z,-2.40
2019-01-25T04:48:55.636Z,-2.40
2019-01-25T04:53:59.383Z,-2.50
2019-01-25T04:59:03.042Z,-2.50
2019-01-25T05:04:07.406Z,-2.50
2019-01-25T05:09:11.155Z,-2.50
2019-01-25T05:14:14.841Z,-2.50
2019-01-25T05:19:18.519Z,-2.50
2019-01-25T05:24:22.198Z,-2.60
2019-01-25T05:29:32.780Z,-2.60
2019-01-25T05:34:36.447Z,-2.60
2019-01-25T05:39:40.418Z,-2.60
2019-01-25T05:44:44.144Z,-2.60
2019-01-25T05:49:47.853Z,-2.60
2019-01-25T05:54:51.546Z,-2.60
2019-01-25T05:59:55.230Z,-2.60
2019-01-25T06:04:59.235Z,-2.60
2019-01-25T06:16:05.776Z,-2.60
2019-01-25T06:21:09.440Z,-2.60
2019-01-25T06:26:14.016Z,-2.60
2019-01-25T06:31:19.772Z,-2.50
2019-01-25T06:36:26.263Z,-2.50
2019-01-25T06:41:30.318Z,-2.60
2019-01-25T06:46:34.746Z,-2.50
2019-01-25T06:51:38.630Z,-2.50
2019-01-25T06:56:49.593Z,-2.50
2019-01-25T07:02:00.844Z,-2.50
2019-01-25T07:07:06.750Z,-2.50
2019-01-25T07:12:10.479Z,-2.50
2019-01-25T07:17:14.463Z,-2.50
2019-01-25T07:22:18.229Z,-2.50
2019-01-25T07:27:22.257Z,-2.50
2019-01-25T07:32:26.273Z,-2.50
2019-01-25T07:37:30.634Z,-2.50
2019-01-25T07:42:34.612Z,-2.50
2019-01-25T07:47:38.575Z,-2.50
2019-01-25T07:52:42.368Z,-2.50
2019-01-25T07:57:46.120Z,-2.50
2019-01-25T08:02:49.815Z,-2.50
2019-01-25T08:07:53.560Z,-2.50
2019-01-25T08:12:57.319Z,-2.40
2019-01-25T08:18:00.995Z,-2.40
2019-01-25T08:23:04.678Z,-2.40
2019-01-25T08:28:08.370Z,-2.40
2019-01-25T08:33:17.564Z,-2.40
2019-01-25T08:38:21.405Z,-2.40
2019-01-25T08:43:25.121Z,-2.30
2019-01-25T08:48:29.255Z,-2.30
2019-01-25T08:53:33.123Z,-2.30
2019-01-25T08:58:36.849Z,-2.30
2019-01-25T09:03:40.523Z,-2.30
2019-01-25T09:08:44.263Z,-2.20
2019-01-25T09:13:47.948Z,-2.10
2019-01-25T09:18:51.610Z,-2.10
2019-01-25T09:23:55.279Z,-2.10
2019-01-25T09:28:58.954Z,-2.00
2019-01-25T09:34:02.631Z,-2.00
2019-01-25T09:39:09.003Z,-2.00
2019-01-25T09:44:12.667Z,-2.00
2019-01-25T09:49:16.686Z,-2.00
2019-01-25T09:54:20.607Z,-1.90
2019-01-25T09:59:24.274Z,-1.90
2019-01-25T10:04:27.963Z,-1.90
2019-01-25T10:09:31.631Z,-1.80
2019-01-25T10:14:35.307Z,-1.80
2019-01-25T10:19:38.971Z,-1.70
2019-01-25T10:24:43.038Z,-1.70
2019-01-25T10:29:46.714Z,-1.70
2019-01-25T10:34:50.378Z,-1.70
2019-01-25T10:39:54.042Z,-1.60
2019-01-25T10:44:57.694Z,-1.50
2019-01-25T10:50:01.362Z,-1.50
2019-01-25T10:55:05.667Z,-1.50
2019-01-25T11:00:12.333Z,-1.50
2019-01-25T11:05:19.036Z,-1.40
2019-01-25T11:10:23.003Z,-1.40
2019-01-25T11:15:26.691Z,-1.40
2019-01-25T11:20:30.346Z,-1.50
2019-01-25T11:25:37.013Z,-1.50
2019-01-25T11:30:40.807Z,-1.60
2019-01-25T11:35:44.771Z,-1.70
2019-01-25T11:40:48.434Z,-1.70
2019-01-25T11:45:54.370Z,-1.70
2019-01-25T11:50:57.532Z,-1.70
2019-01-25T11:56:01.210Z,-1.70
2019-01-25T12:01:05.621Z,-1.70
2019-01-25T12:06:09.363Z,-1.70
2019-01-25T12:11:13.019Z,-1.60
2019-01-25T12:16:16.690Z,-1.60
2019-01-25T12:21:20.759Z,-1.50
2019-01-25T12:26:24.956Z,-1.50
2019-01-25T12:31:28.611Z,-1.40
2019-01-25T12:36:32.277Z,-1.40
2019-01-25T12:41:35.934Z,-1.30
2019-01-25T12:46:39.599Z,-1.30
2019-01-25T12:51:50.815Z,-1.30
2019-01-25T12:56:54.487Z,-1.20
2019-01-25T13:01:59.252Z,-1.20
2019-01-25T13:07:02.927Z,-1.10
2019-01-25T13:12:06.582Z,-1.10
2019-01-25T13:17:10.244Z,-1.10
2019-01-25T13:22:13.912Z,-1.10
2019-01-25T13:27:17.909Z,-1.10
2019-01-25T13:32:21.567Z,-1.00
2019-01-25T13:37:25.243Z,-1.00
2019-01-25T13:42:29.053Z,-1.00
2019-01-25T13:47:32.724Z,-1.00
2019-01-25T13:52:36.390Z,-1.00
2019-01-25T13:57:40.046Z,-1.00
2019-01-25T14:02:49.371Z,-1.00
2019-01-25T14:07:53.387Z,-1.00
2019-01-25T14:12:57.196Z,-1.00
2019-01-25T14:18:01.167Z,-1.00
2019-01-25T14:23:05.828Z,-1.00
2019-01-25T14:28:28.064Z,-1.00
2019-01-25T14:33:31.793Z,-1.10
2019-01-25T14:38:35.477Z,-1.10
2019-01-25T14:43:39.176Z,-1.20
2019-01-25T14:48:42.875Z,-1.20
2019-01-25T14:53:51.218Z,-1.30
2019-01-25T14:58:54.886Z,-1.30
2019-01-25T15:03:58.627Z,-1.30
2019-01-25T15:09:02.295Z,-1.40
2019-01-25T15:14:06.673Z,-1.40
2019-01-25T15:19:14.477Z,-1.40
2019-01-25T15:24:18.208Z,-1.50
2019-01-25T15:29:48.113Z,-1.50
2019-01-25T15:34:51.869Z,-1.50
2019-01-25T15:39:55.548Z,-1.50
2019-01-25T15:45:00.507Z,-1.50
2019-01-25T15:50:06.463Z,-1.50
2019-01-25T16:01:54.936Z,-1.50
2019-01-25T16:06:59.280Z,-1.50
2019-01-25T16:12:03.137Z,-1.50
2019-01-25T16:17:08.623Z,-1.50
2019-01-25T16:22:12.472Z,-1.50
2019-01-25T16:27:16.524Z,-1.50
2019-01-25T16:32:20.240Z,-1.50
2019-01-25T16:37:23.955Z,-1.50
2019-01-25T16:42:28.519Z,-1.50
2019-01-25T16:47:45.977Z,-1.50
2019-01-25T16:52:49.872Z,-1.50
2019-01-25T16:57:54.538Z,-1.50
2019-01-25T17:02:58.534Z,-1.50
2019-01-25T17:08:02.269Z,-1.50
2019-01-25T17:13:06.059Z,-1.50
2019-01-25T17:18:10.183Z,-1.50
2019-01-25T17:23:13.859Z,-1.50
2019-01-25T17:28:17.523Z,-1.40
2019-01-25T17:33:21.203Z,-1.50
2019-01-25T17:38:24.870Z,-1.50
2019-01-25T17:43:28.540Z,-1.50
2019-01-25T17:48:33.367Z,-1.50
2019-01-25T17:53:37.043Z,-1.50
2019-01-25T17:58:40.720Z,-1.50
2019-01-25T18:03:44.435Z,-1.50
2019-01-25T18:08:48.100Z,-1.50
2019-01-25T18:13:51.759Z,-1.50
2019-01-25T18:18:55.422Z,-1.50
2019-01-25T18:23:59.079Z,-1.50
2019-01-25T18:29:06.102Z,-1.50
2019-01-25T18:34:09.768Z,-1.50
2019-01-25T18:39:13.892Z,-1.50
2019-01-25T18:44:17.570Z,-1.50
2019-01-25T18:49:22.141Z,-1.50
2019-01-25T18:54:25.938Z,-1.50
2019-01-25T18:59:29.658Z,-1.50
2019-01-25T19:04:33.367Z,-1.50
2019-01-25T19:09:38.533Z,-1.50
2019-01-25T19:14:43.925Z,-1.50
2019-01-25T19:19:47.771Z,-1.50
2019-01-25T19:24:51.755Z,-1.50
2019-01-25T19:29:55.418Z,-1.50
2019-01-25T19:34:59.160Z,-1.40
2019-01-25T19:40:05.775Z,-1.40
2019-01-25T19:45:12.056Z,-1.40
2019-01-25T19:50:17.252Z,-1.40
2019-01-25T19:55:23.062Z,-1.40
2019-01-25T20:00:29.559Z,-1.40
2019-01-25T20:05:33.524Z,-1.40
2019-01-25T20:10:37.547Z,-1.40
2019-01-25T20:15:41.334Z,-1.40
2019-01-25T20:20:45.371Z,-1.40
2019-01-25T20:25:49.522Z,-1.40
2019-01-25T20:30:53.758Z,-1.40
2019-01-25T20:35:57.924Z,-1.40
2019-01-25T20:41:02.409Z,-1.40
2019-01-25T20:46:06.210Z,-1.40
2019-01-25T20:51:10.274Z,-1.40
2019-01-25T20:56:14.027Z,-1.40
2019-01-25T21:01:17.761Z,-1.40
2019-01-25T21:06:21.510Z,-1.40
2019-01-25T21:11:25.177Z,-1.40
2019-01-25T21:16:28.843Z,-1.40
2019-01-25T21:21:32.503Z,-1.50
2019-01-25T21:26:36.146Z,-1.40
2019-01-25T21:31:39.833Z,-1.50
2019-01-25T21:36:43.495Z,-1.40
2019-01-25T21:41:47.230Z,-1.40
2019-01-25T21:46:50.907Z,-1.40
2019-01-25T21:51:54.571Z,-1.40
2019-01-25T21:56:58.247Z,-1.50
2019-01-25T22:02:01.991Z,-1.50
2019-01-25T22:07:05.814Z,-1.50
2019-01-25T22:12:09.470Z,-1.50
2019-01-25T22:17:13.483Z,-1.50
2019-01-25T22:22:17.138Z,-1.50
2019-01-25T22:27:20.819Z,-1.60
2019-01-25T22:32:24.822Z,-1.60
2019-01-25T22:37:28.506Z,-1.60
2019-01-25T22:42:32.190Z,-1.60
2019-01-25T22:47:35.879Z,-1.60
2019-01-25T22:52:39.906Z,-1.60
2019-01-25T22:57:43.706Z,-1.60
2019-01-25T23:02:47.487Z,-1.60
2019-01-25T23:07:51.234Z,-1.60
2019-01-25T23:12:54.903Z,-1.50
2019-01-25T23:17:58.655Z,-1.50
2019-01-25T23:23:02.416Z,-1.50
2019-01-25T23:28:06.378Z,-1.50
2019-01-25T23:33:10.076Z,-1.40
2019-01-25T23:38:13.755Z,-1.40
2019-01-25T23:43:17.431Z,-1.40
2019-01-25T23:48:21.100Z,-1.40
2019-01-25T23:53:25.075Z,-1.40
2019-01-25T23:58:28.759Z,-1.40
